createdAt,value
2023-01-28T00:02:08.423Z,63.90
2023-01-28T00:04:35.699Z,64.00
2023-01-28T00:07:02.889Z,64.00
2023-01-28T00:09:30.080Z,63.80
2023-01-28T00:12:04.581Z,63.80
2023-01-28T00:14:31.889Z,64.00
2023-01-28T00:16:59.163Z,63.90
2023-01-28T00:19:26.365Z,63.70
2023-01-28T00:21:53.605Z,63.70
2023-01-28T00:24:20.970Z,63.70
2023-01-28T00:26:48.423Z,63.60
2023-01-28T00:29:15.666Z,63.70
2023-01-28T00:31:44.606Z,63.80
2023-01-28T00:34:11.968Z,63.90
2023-01-28T00:36:42.290Z,63.90
2023-01-28T00:39:13.603Z,63.70
2023-01-28T00:41:42.752Z,63.70
2023-01-28T00:44:10.039Z,63.50
2023-01-28T00:46:37.324Z,63.40
2023-01-28T00:49:04.557Z,63.30
2023-01-28T00:51:31.788Z,63.40
2023-01-28T00:53:58.942Z,63.40
2023-01-28T00:56:27.552Z,63.40
2023-01-28T00:58:54.824Z,63.40
2023-01-28T01:01:26.706Z,63.50
2023-01-28T01:04:03.379Z,63.40
2023-01-28T01:06:37.927Z,63.40
2023-01-28T01:09:08.605Z,63.50
2023-01-28T01:11:36.109Z,63.50
2023-01-28T01:14:05.229Z,63.40
2023-01-28T01:16:33.532Z,63.40
2023-01-28T01:19:01.084Z,63.40
2023-01-28T01:21:29.446Z,63.40
2023-01-28T01:23:56.856Z,63.70
2023-01-28T01:26:24.083Z,63.60
2023-01-28T01:28:52.226Z,63.70
2023-01-28T01:31:20.985Z,63.50
2023-01-28T01:33:49.168Z,63.60
2023-01-28T01:36:17.254Z,63.60
2023-01-28T01:38:44.970Z,63.60
2023-01-28T01:41:29.926Z,63.50
2023-01-28T01:44:00.004Z,63.50
2023-01-28T01:46:43.951Z,63.50
2023-01-28T01:49:27.451Z,63.50
2023-01-28T01:52:03.019Z,63.60
2023-01-28T01:54:30.764Z,63.60
2023-01-28T01:56:57.959Z,63.60
2023-01-28T01:59:28.796Z,63.80
2023-01-28T02:01:56.195Z,63.90
2023-01-28T02:04:28.964Z,63.90
2023-01-28T02:06:57.055Z,63.90
2023-01-28T02:09:36.152Z,64.00
2023-01-28T02:12:15.992Z,64.10
2023-01-28T02:14:46.702Z,64.00
2023-01-28T02:17:15.493Z,64.10
2023-01-28T02:19:55.095Z,64.20
2023-01-28T02:23:05.100Z,64.10
2023-01-28T02:26:19.051Z,64.20
2023-01-28T02:28:55.494Z,64.20
2023-01-28T02:31:40.288Z,64.20
2023-01-28T02:34:20.035Z,64.20
2023-01-28T02:36:53.683Z,64.30
2023-01-28T02:39:27.778Z,64.30
2023-01-28T02:42:07.185Z,64.40
2023-01-28T02:44:34.547Z,64.40
2023-01-28T02:47:20.567Z,64.50
2023-01-28T02:49:53.384Z,64.60
2023-01-28T02:53:08.277Z,64.40
2023-01-28T02:55:51.147Z,64.40
2023-01-28T02:58:55.881Z,64.50
2023-01-28T03:01:49.841Z,64.60
2023-01-28T03:04:30.084Z,64.60
2023-01-28T03:07:00.373Z,64.60
2023-01-28T03:09:27.607Z,64.60
2023-01-28T03:12:25.803Z,64.70
2023-01-28T03:15:21.795Z,64.80
2023-01-28T03:18:16.865Z,64.80
2023-01-28T03:21:24.770Z,64.80
2023-01-28T03:24:19.673Z,64.80
2023-01-28T03:27:51.913Z,64.80
2023-01-28T03:30:55.492Z,64.90
2023-01-28T03:33:49.320Z,65.00
2023-01-28T03:36:35.354Z,65.10
2023-01-28T03:39:03.146Z,65.20
2023-01-28T03:41:30.402Z,65.20
2023-01-28T03:44:17.841Z,65.10
2023-01-28T03:46:48.684Z,65.10
2023-01-28T03:49:17.039Z,65.30
2023-01-28T03:51:46.269Z,65.40
2023-01-28T03:54:13.852Z,65.30
2023-01-28T03:56:41.218Z,65.20
2023-01-28T03:59:08.572Z,65.30
2023-01-28T04:01:37.164Z,65.30
2023-01-28T04:04:04.564Z,65.30
2023-01-28T04:06:32.014Z,65.40
2023-01-28T04:09:06.014Z,65.40
2023-01-28T04:11:59.704Z,65.50
2023-01-28T04:14:32.024Z,65.50
2023-01-28T04:17:10.651Z,65.60
2023-01-28T04:19:38.516Z,65.70
2023-01-28T04:22:08.438Z,65.70
2023-01-28T04:24:35.855Z,65.70
2023-01-28T04:27:03.198Z,65.80
2023-01-28T04:29:31.731Z,65.90
2023-01-28T04:32:09.929Z,65.90
2023-01-28T04:35:01.224Z,66.00
2023-01-28T04:37:45.654Z,65.90
2023-01-28T04:40:29.567Z,65.90
2023-01-28T04:43:01.444Z,65.90
2023-01-28T04:45:50.504Z,66.00
2023-01-28T04:48:32.169Z,65.90
2023-01-28T04:51:17.367Z,66.00
2023-01-28T04:54:06.299Z,66.00
2023-01-28T04:56:35.349Z,66.10
2023-01-28T04:59:03.406Z,66.00
2023-01-28T05:01:32.134Z,66.00
2023-01-28T05:04:05.686Z,66.20
2023-01-28T05:06:36.259Z,66.20
2023-01-28T05:09:10.310Z,66.20
2023-01-28T05:11:39.233Z,66.10
2023-01-28T05:14:07.043Z,66.10
2023-01-28T05:16:44.914Z,66.10
2023-01-28T05:19:12.634Z,66.20
2023-01-28T05:21:42.253Z,66.20
2023-01-28T05:24:18.735Z,66.10
2023-01-28T05:26:46.002Z,66.10
2023-01-28T05:29:13.347Z,66.10
2023-01-28T05:31:40.572Z,66.20
2023-01-28T05:34:08.523Z,66.20
2023-01-28T05:36:35.822Z,66.30
2023-01-28T05:39:10.848Z,66.20
2023-01-28T05:41:38.514Z,66.30
2023-01-28T05:44:06.568Z,66.30
2023-01-28T05:46:56.701Z,66.40
2023-01-28T05:49:46.476Z,66.50
2023-01-28T05:52:38.247Z,66.50
2023-01-28T05:55:09.828Z,66.50
2023-01-28T05:57:37.193Z,66.70
2023-01-28T06:00:12.998Z,66.80
2023-01-28T06:02:43.346Z,66.70
2023-01-28T06:05:13.556Z,66.60
2023-01-28T06:07:40.822Z,66.60
2023-01-28T06:10:11.368Z,66.70
2023-01-28T06:12:39.421Z,66.60
2023-01-28T06:15:38.728Z,66.70
2023-01-28T06:18:23.658Z,66.70
2023-01-28T06:20:51.865Z,66.60
2023-01-28T06:23:19.157Z,66.60
2023-01-28T06:25:47.452Z,66.60
2023-01-28T06:28:16.368Z,66.80
2023-01-28T06:30:43.726Z,66.80
2023-01-28T06:33:10.861Z,66.80
2023-01-28T06:35:38.089Z,66.70
2023-01-28T06:38:05.363Z,66.80
2023-01-28T06:40:34.492Z,66.90
2023-01-28T06:43:01.706Z,67.00
2023-01-28T06:45:28.977Z,67.00
2023-01-28T06:47:56.185Z,67.10
2023-01-28T06:50:23.497Z,67.20
2023-01-28T06:52:50.836Z,67.30
2023-01-28T06:55:18.065Z,67.30
2023-01-28T06:57:48.008Z,67.40
2023-01-28T07:00:18.616Z,67.40
2023-01-28T07:02:46.000Z,67.40
2023-01-28T07:05:13.238Z,67.50
2023-01-28T07:07:42.024Z,67.50
2023-01-28T07:10:11.043Z,67.70
2023-01-28T07:12:38.244Z,67.70
2023-01-28T07:15:06.291Z,67.70
2023-01-28T07:17:33.535Z,67.70
2023-01-28T07:20:00.710Z,67.60
2023-01-28T07:22:28.000Z,67.70
2023-01-28T07:24:55.251Z,67.80
2023-01-28T07:27:25.806Z,67.80
2023-01-28T07:29:53.086Z,67.70
2023-01-28T07:32:20.454Z,67.70
2023-01-28T07:34:47.628Z,67.70
2023-01-28T07:37:15.342Z,67.80
2023-01-28T07:39:42.576Z,67.70
2023-01-28T07:42:09.831Z,67.80
2023-01-28T07:44:38.894Z,67.70
2023-01-28T07:47:07.039Z,67.70
2023-01-28T07:49:39.884Z,67.80
2023-01-28T07:52:08.472Z,67.80
2023-01-28T07:54:35.706Z,67.80
2023-01-28T07:57:11.404Z,67.70
2023-01-28T07:59:38.601Z,67.80
2023-01-28T08:02:12.235Z,67.70
2023-01-28T08:04:40.715Z,67.80
2023-01-28T08:07:08.331Z,67.90
2023-01-28T08:09:35.597Z,68.00
2023-01-28T08:12:03.409Z,67.80
2023-01-28T08:14:30.638Z,67.60
2023-01-28T08:16:58.203Z,67.70
2023-01-28T08:19:25.446Z,67.80
2023-01-28T08:21:55.213Z,67.90
2023-01-28T08:24:24.328Z,68.00
2023-01-28T08:26:51.731Z,67.90
2023-01-28T08:29:21.788Z,67.80
2023-01-28T08:31:49.154Z,67.60
2023-01-28T08:34:16.366Z,67.60
2023-01-28T08:36:43.620Z,67.60
2023-01-28T08:39:11.014Z,67.80
2023-01-28T08:41:38.176Z,67.70
2023-01-28T08:44:05.535Z,67.60
2023-01-28T08:46:32.853Z,67.60
2023-01-28T08:49:00.039Z,67.50
2023-01-28T08:51:27.219Z,67.50
2023-01-28T08:53:54.428Z,67.50
2023-01-28T08:56:21.745Z,67.60
2023-01-28T08:58:48.998Z,67.60
2023-01-28T09:01:16.249Z,67.60
2023-01-28T09:03:43.502Z,67.60
2023-01-28T09:06:10.877Z,67.40
2023-01-28T09:08:38.409Z,67.20
2023-01-28T09:11:05.650Z,67.30
2023-01-28T09:13:32.933Z,67.20
2023-01-28T09:16:00.222Z,67.20
2023-01-28T09:18:27.379Z,67.20
2023-01-28T09:20:54.585Z,67.20
2023-01-28T09:23:21.886Z,67.00
2023-01-28T09:25:49.137Z,67.10
2023-01-28T09:28:16.463Z,67.10
2023-01-28T09:30:43.826Z,67.10
2023-01-28T09:33:11.017Z,66.90
2023-01-28T09:35:38.203Z,66.90
2023-01-28T09:38:05.691Z,67.10
2023-01-28T09:40:43.679Z,67.20
2023-01-28T09:43:42.083Z,67.00
2023-01-28T09:46:13.024Z,67.00
2023-01-28T09:48:52.063Z,67.10
2023-01-28T09:51:40.035Z,67.20
2023-01-28T09:54:26.813Z,67.20
2023-01-28T09:57:05.544Z,67.20
2023-01-28T09:59:35.358Z,67.10
2023-01-28T10:02:27.375Z,66.90
2023-01-28T10:05:25.834Z,66.90
2023-01-28T10:08:50.599Z,66.80
2023-01-28T10:11:45.460Z,66.70
2023-01-28T10:14:17.246Z,66.70
2023-01-28T10:16:50.088Z,66.90
2023-01-28T10:19:28.389Z,67.10
2023-01-28T10:22:09.501Z,67.10
2023-01-28T10:24:42.048Z,67.20
2023-01-28T10:27:24.218Z,67.00
2023-01-28T10:29:51.697Z,66.80
2023-01-28T10:32:35.935Z,66.90
2023-01-28T10:35:03.663Z,66.80
2023-01-28T10:37:35.071Z,66.80
2023-01-28T10:40:04.151Z,66.90
2023-01-28T10:42:34.472Z,66.70
2023-01-28T10:45:22.104Z,66.70
2023-01-28T10:48:03.845Z,66.60
2023-01-28T10:50:31.584Z,66.60
2023-01-28T10:53:01.015Z,66.40
2023-01-28T10:55:45.857Z,66.50
2023-01-28T10:58:22.662Z,66.60
2023-01-28T11:00:59.868Z,66.90
2023-01-28T11:03:35.247Z,66.70
2023-01-28T11:06:03.082Z,66.70
2023-01-28T11:08:31.011Z,66.70
2023-01-28T11:10:58.448Z,66.40
2023-01-28T11:13:29.851Z,66.40
2023-01-28T11:15:57.197Z,66.30
2023-01-28T11:18:28.031Z,66.50
2023-01-28T11:21:00.997Z,66.40
2023-01-28T11:23:33.453Z,66.40
2023-01-28T11:26:16.197Z,66.50
2023-01-28T11:28:43.727Z,66.50
2023-01-28T11:31:16.984Z,66.50
2023-01-28T11:33:58.880Z,66.60
2023-01-28T11:36:31.411Z,66.50
2023-01-28T11:39:01.043Z,66.60
2023-01-28T11:41:35.925Z,66.20
2023-01-28T11:44:15.721Z,66.30
2023-01-28T11:47:25.682Z,66.50
2023-01-28T11:50:36.394Z,66.40
2023-01-28T11:53:23.964Z,66.00
2023-01-28T11:56:16.484Z,66.10
2023-01-28T11:59:11.926Z,66.20
2023-01-28T12:02:42.695Z,66.00
2023-01-28T12:05:27.826Z,66.00
2023-01-28T12:08:26.792Z,66.00
2023-01-28T12:11:14.956Z,66.00
2023-01-28T12:14:07.828Z,65.90
2023-01-28T12:16:58.829Z,65.80
2023-01-28T12:19:56.402Z,66.00
2023-01-28T12:22:52.421Z,66.00
2023-01-28T12:26:03.263Z,66.00
2023-01-28T12:28:44.761Z,66.00
2023-01-28T12:31:52.767Z,66.10
2023-01-28T12:35:07.911Z,65.70
2023-01-28T12:37:55.791Z,65.70
2023-01-28T12:40:28.837Z,65.70
2023-01-28T12:43:23.682Z,65.70
2023-01-28T12:46:05.138Z,65.90
2023-01-28T12:48:49.180Z,66.20
2023-01-28T12:51:23.722Z,66.40
2023-01-28T12:54:05.899Z,66.50
2023-01-28T12:56:40.615Z,66.50
2023-01-28T12:59:31.199Z,66.30
2023-01-28T13:02:13.371Z,66.30
2023-01-28T13:05:02.307Z,66.30
2023-01-28T13:07:56.308Z,66.20
2023-01-28T13:10:32.960Z,66.10
2023-01-28T13:13:00.172Z,66.10
2023-01-28T13:15:27.423Z,66.20
2023-01-28T13:17:59.061Z,66.30
2023-01-28T13:20:37.138Z,66.30
2023-01-28T13:23:20.316Z,66.20
2023-01-28T13:25:53.375Z,65.90
2023-01-28T13:28:30.018Z,66.00
2023-01-28T13:31:14.438Z,66.00
2023-01-28T13:33:42.232Z,65.90
2023-01-28T13:36:18.212Z,65.90
2023-01-28T13:38:45.814Z,65.80
2023-01-28T13:41:13.103Z,66.00
2023-01-28T13:43:42.145Z,65.90
2023-01-28T13:46:26.913Z,65.60
2023-01-28T13:48:56.277Z,65.60
2023-01-28T13:51:30.237Z,65.80
2023-01-28T13:54:07.334Z,65.40
2023-01-28T13:57:01.076Z,65.60
2023-01-28T14:00:11.571Z,65.60
2023-01-28T14:03:12.785Z,65.40
2023-01-28T14:06:07.645Z,65.50
2023-01-28T14:09:04.578Z,65.60
2023-01-28T14:12:05.798Z,65.40
2023-01-28T14:14:47.981Z,65.40
2023-01-28T14:17:46.679Z,65.40
2023-01-28T14:20:47.762Z,65.10
2023-01-28T14:23:18.821Z,65.00
2023-01-28T14:25:55.125Z,65.10
2023-01-28T14:28:52.424Z,65.10
2023-01-28T14:31:29.096Z,65.20
2023-01-28T14:33:58.752Z,65.10
2023-01-28T14:36:25.946Z,65.30
2023-01-28T14:38:53.642Z,65.40
2023-01-28T14:41:25.077Z,65.50
2023-01-28T14:43:54.623Z,65.20
2023-01-28T14:46:45.780Z,65.10
2023-01-28T14:49:44.793Z,65.00
2023-01-28T14:53:03.016Z,65.10
2023-01-28T14:56:09.051Z,65.10
2023-01-28T14:58:46.362Z,65.20
2023-01-28T15:01:43.991Z,65.50
2023-01-28T15:04:34.032Z,65.30
2023-01-28T15:07:19.471Z,65.30
2023-01-28T15:09:47.146Z,65.30
2023-01-28T15:12:15.877Z,65.30
2023-01-28T15:14:43.417Z,65.40
2023-01-28T15:17:23.126Z,65.60
2023-01-28T15:19:50.482Z,65.50
2023-01-28T15:22:25.598Z,65.40
2023-01-28T15:24:52.871Z,65.50
2023-01-28T15:27:29.909Z,65.60
2023-01-28T15:29:59.185Z,65.60
2023-01-28T15:32:29.541Z,65.50
2023-01-28T15:34:58.908Z,65.60
2023-01-28T15:37:26.095Z,65.40
2023-01-28T15:40:06.925Z,65.40
2023-01-28T15:42:34.111Z,65.40
2023-01-28T15:45:01.435Z,65.40
2023-01-28T15:47:33.878Z,65.40
2023-01-28T15:50:06.565Z,65.40
2023-01-28T15:52:41.280Z,65.60
2023-01-28T15:55:29.661Z,65.50
2023-01-28T15:57:57.048Z,65.50
2023-01-28T16:00:25.480Z,65.60
2023-01-28T16:02:54.274Z,65.70
2023-01-28T16:05:29.157Z,65.60
2023-01-28T16:07:57.162Z,65.60
2023-01-28T16:10:27.099Z,65.60
2023-01-28T16:13:15.097Z,65.70
2023-01-28T16:15:47.374Z,65.70
2023-01-28T16:18:40.849Z,65.70
2023-01-28T16:21:10.548Z,65.80
2023-01-28T16:23:39.596Z,65.70
2023-01-28T16:26:28.309Z,65.60
2023-01-28T16:28:55.662Z,65.60
2023-01-28T16:31:23.055Z,65.70
2023-01-28T16:33:50.359Z,65.70
2023-01-28T16:36:19.405Z,65.80
2023-01-28T16:38:46.746Z,65.80
2023-01-28T16:41:21.341Z,65.90
2023-01-28T16:43:48.548Z,65.90
2023-01-28T16:46:15.762Z,65.90
2023-01-28T16:48:45.055Z,65.80
2023-01-28T16:51:17.468Z,65.80
2023-01-28T16:53:48.075Z,65.50
2023-01-28T16:56:44.510Z,65.70
2023-01-28T16:59:11.453Z,65.70
2023-01-28T17:01:38.694Z,65.70
2023-01-28T17:04:11.486Z,65.50
2023-01-28T17:06:43.384Z,65.50
2023-01-28T17:09:17.417Z,65.70
2023-01-28T17:11:46.973Z,65.70
2023-01-28T17:14:16.464Z,65.70
2023-01-28T17:16:45.054Z,65.40
2023-01-28T17:19:12.279Z,65.40
2023-01-28T17:21:39.567Z,65.30
2023-01-28T17:24:07.446Z,65.30
2023-01-28T17:26:35.508Z,65.20
2023-01-28T17:29:04.554Z,65.20
2023-01-28T17:31:31.786Z,65.20
2023-01-28T17:33:59.373Z,65.30
2023-01-28T17:36:26.749Z,65.30
2023-01-28T17:38:54.137Z,65.40
2023-01-28T17:41:21.594Z,65.60
2023-01-28T17:43:53.099Z,65.70
2023-01-28T17:46:20.716Z,65.60
2023-01-28T17:48:47.973Z,65.50
2023-01-28T17:51:18.975Z,65.60
2023-01-28T17:53:52.584Z,65.50
2023-01-28T17:56:25.963Z,65.50
2023-01-28T17:58:58.162Z,65.80
2023-01-28T18:01:27.008Z,65.70
2023-01-28T18:03:55.162Z,65.70
2023-01-28T18:06:22.508Z,65.80
2023-01-28T18:08:49.853Z,65.80
2023-01-28T18:11:18.579Z,65.80
2023-01-28T18:13:45.823Z,65.80
2023-01-28T18:16:16.110Z,65.60
2023-01-28T18:18:43.632Z,65.40
2023-01-28T18:21:57.025Z,65.40
2023-01-28T18:24:26.571Z,65.30
2023-01-28T18:26:58.370Z,65.30
2023-01-28T18:29:29.506Z,65.20
2023-01-28T18:31:57.669Z,65.10
2023-01-28T18:34:26.997Z,65.20
2023-01-28T18:36:54.297Z,65.10
2023-01-28T18:39:21.809Z,65.20
2023-01-28T18:41:49.019Z,65.20
2023-01-28T18:44:16.265Z,65.00
2023-01-28T18:46:43.531Z,65.10
2023-01-28T18:49:10.775Z,65.40
2023-01-28T18:51:38.671Z,65.60
2023-01-28T18:54:07.406Z,65.80
2023-01-28T18:56:36.766Z,66.00
2023-01-28T18:59:05.970Z,66.10
2023-01-28T19:01:34.625Z,66.30
2023-01-28T19:04:02.169Z,66.30
2023-01-28T19:06:30.227Z,66.40
2023-01-28T19:09:02.216Z,66.50
2023-01-28T19:11:30.060Z,66.70
2023-01-28T19:13:57.503Z,66.70
2023-01-28T19:16:24.820Z,66.80
2023-01-28T19:18:56.889Z,66.90
2023-01-28T19:21:25.034Z,67.10
2023-01-28T19:23:57.722Z,67.10
2023-01-28T19:26:31.449Z,67.40
2023-01-28T19:29:01.711Z,67.50
2023-01-28T19:31:32.466Z,67.50
2023-01-28T19:34:00.025Z,67.70
2023-01-28T19:36:32.224Z,67.80
2023-01-28T19:39:06.472Z,68.00
2023-01-28T19:41:33.778Z,68.20
2023-01-28T19:44:01.144Z,68.30
2023-01-28T19:46:29.333Z,68.40
2023-01-28T19:48:56.609Z,68.40
2023-01-28T19:51:24.046Z,68.50
2023-01-28T19:53:58.427Z,68.70
2023-01-28T19:56:30.968Z,68.90
2023-01-28T19:58:59.415Z,68.80
2023-01-28T20:01:30.161Z,68.80
2023-01-28T20:03:59.410Z,68.90
2023-01-28T20:06:28.271Z,69.00
2023-01-28T20:08:58.388Z,69.10
2023-01-28T20:11:25.882Z,69.20
2023-01-28T20:13:53.363Z,69.30
2023-01-28T20:16:23.375Z,69.40
2023-01-28T20:18:55.959Z,69.40
2023-01-28T20:21:23.304Z,69.40
2023-01-28T20:23:52.166Z,69.40
2023-01-28T20:26:21.327Z,69.30
2023-01-28T20:28:49.565Z,69.30
2023-01-28T20:31:19.870Z,69.30
2023-01-28T20:33:47.126Z,69.40
2023-01-28T20:36:14.860Z,69.50
2023-01-28T20:38:49.739Z,69.50
2023-01-28T20:41:22.221Z,69.60
2023-01-28T20:44:01.737Z,69.70
2023-01-28T20:46:31.073Z,69.60
2023-01-28T20:49:03.075Z,69.90
2023-01-28T20:51:32.069Z,70.00
2023-01-28T20:54:02.891Z,69.90
2023-01-28T20:56:31.191Z,69.90
2023-01-28T20:59:04.243Z,69.90
2023-01-28T21:01:34.230Z,70.10
2023-01-28T21:04:01.762Z,70.00
2023-01-28T21:06:29.124Z,69.90
2023-01-28T21:08:57.228Z,69.70
2023-01-28T21:11:25.760Z,69.70
2023-01-28T21:13:53.129Z,69.80
2023-01-28T21:16:20.339Z,69.90
2023-01-28T21:18:47.719Z,70.00
2023-01-28T21:21:25.973Z,70.20
2023-01-28T21:24:03.274Z,70.60
2023-01-28T21:26:33.809Z,70.60
2023-01-28T21:29:04.362Z,70.50
2023-01-28T21:31:32.190Z,70.50
2023-01-28T21:34:02.981Z,70.50
2023-01-28T21:36:37.466Z,70.40
2023-01-28T21:39:05.613Z,70.40
2023-01-28T21:41:36.402Z,70.30
2023-01-28T21:44:03.956Z,70.30
2023-01-28T21:46:53.063Z,70.30
2023-01-28T21:49:24.428Z,70.30
2023-01-28T21:55:32.193Z,70.30
2023-01-28T21:58:25.360Z,70.30
2023-01-28T22:01:09.110Z,70.20
2023-01-28T22:04:32.867Z,70.10
2023-01-28T22:07:21.292Z,70.50
2023-01-28T22:10:02.342Z,70.50
2023-01-28T22:12:33.280Z,70.60
2023-01-28T22:15:18.309Z,70.60
2023-01-28T22:17:51.071Z,70.80
2023-01-28T22:20:35.241Z,70.90
2023-01-28T22:23:38.134Z,71.10
2023-01-28T22:29:28.982Z,71.20
2023-01-28T22:32:12.510Z,71.10
2023-01-28T22:35:30.862Z,71.10
2023-01-28T22:38:05.170Z,71.30
2023-01-28T22:40:33.059Z,71.20
2023-01-28T22:43:00.346Z,71.20
2023-01-28T22:45:35.574Z,71.10
2023-01-28T22:48:02.839Z,71.00
2023-01-28T22:50:57.190Z,71.00
2023-01-28T22:53:47.344Z,70.90
2023-01-28T22:56:15.315Z,70.90
2023-01-28T22:58:42.646Z,70.90
2023-01-28T23:01:11.127Z,70.90
2023-01-28T23:03:38.328Z,71.00
2023-01-28T23:06:05.883Z,71.00
2023-01-28T23:08:33.758Z,71.00
2023-01-28T23:11:02.001Z,71.10
2023-01-28T23:13:52.067Z,71.10
2023-01-28T23:16:39.688Z,71.10
2023-01-28T23:19:27.045Z,71.00
2023-01-28T23:22:13.051Z,71.20
2023-01-28T23:24:40.857Z,71.20
2023-01-28T23:27:08.130Z,71.30
2023-01-28T23:29:35.440Z,71.20
2023-01-28T23:32:04.657Z,71.10
2023-01-28T23:34:44.518Z,71.10
2023-01-28T23:37:13.004Z,70.90
2023-01-28T23:39:40.753Z,70.70
2023-01-28T23:42:20.721Z,70.60
2023-01-28T23:44:48.474Z,70.80
2023-01-28T23:47:15.846Z,70.80
2023-01-28T23:49:43.094Z,70.80
2023-01-28T23:52:10.383Z,70.60
2023-01-28T23:54:37.667Z,70.60
2023-01-28T23:57:05.216Z,70.60
2023-01-28T23:59:32.472Z,70.70
